Time;durP1;ratioP1;P1;durP2;ratioP2;P2;SDS_P1;SDS_P2;PMS_P1;PMS_P2;Temp;Humidity;BMP_temperature;BMP_pressure;BME280_temperature;BME280_humidity;BME280_pressure;Samples;Min_cycle;Max_cycle;Signal;HPM_P1;HPM_P2
2023/12/02 00:02:40;;;;;;;143.40;53.80;;;;;;;-7.58;74.16;100112.56;104868;1293;70933;-57
2023/12/02 00:05:26;;;;;;;145.10;51.30;;;;;;;-7.59;73.97;100118.69;104669;1291;70288;-55
2023/12/02 00:08:12;;;;;;;144.90;51.00;;;;;;;-7.61;74.03;100109.23;104844;1293;59835;-56
2023/12/02 00:10:59;;;;;;;135.30;46.00;;;;;;;-7.63;74.01;100116.20;104726;1290;60489;-57
2023/12/02 00:13:46;;;;;;;122.00;46.80;;;;;;;-7.66;74.20;100116.22;104852;1291;74163;-57
2023/12/02 00:16:32;;;;;;;113.50;42.60;;;;;;;-7.68;74.18;100117.77;104886;1290;67761;-57
2023/12/02 00:19:18;;;;;;;118.70;44.60;;;;;;;-7.71;74.27;100112.78;104931;1290;71159;-54
2023/12/02 00:22:06;;;;;;;126.10;43.90;;;;;;;-7.72;74.25;100107.70;104920;1290;60991;-57
2023/12/02 00:24:52;;;;;;;108.00;44.00;;;;;;;-7.76;74.32;100108.67;104907;1290;59300;-56
2023/12/02 00:27:38;;;;;;;107.80;43.80;;;;;;;-7.79;74.25;100111.70;104890;1289;73120;-57
2023/12/02 00:30:25;;;;;;;106.50;40.30;;;;;;;-7.85;73.98;100113.31;104848;1291;67331;-57
2023/12/02 00:33:11;;;;;;;105.20;40.50;;;;;;;-7.94;74.02;100119.88;104902;1291;74017;-56
2023/12/02 00:35:57;;;;;;;104.20;41.30;;;;;;;-8.05;73.96;100117.83;104858;1291;60371;-57
2023/12/02 00:38:43;;;;;;;97.10;38.20;;;;;;;-8.10;73.92;100118.23;104785;1289;63072;-57
2023/12/02 00:41:30;;;;;;;99.30;37.90;;;;;;;-8.14;74.13;100118.71;104861;1291;71590;-57
2023/12/02 00:44:16;;;;;;;96.20;38.20;;;;;;;-8.14;73.97;100110.33;104841;1290;67221;-57
2023/12/02 00:47:03;;;;;;;103.70;39.30;;;;;;;-8.16;73.80;100106.23;104776;1291;70968;-56
2023/12/02 00:49:49;;;;;;;103.10;39.20;;;;;;;-8.17;74.10;100105.33;104788;1291;60393;-57
2023/12/02 00:52:35;;;;;;;105.30;39.40;;;;;;;-8.18;74.27;100106.61;104912;1291;60342;-57
2023/12/02 00:55:22;;;;;;;100.30;39.50;;;;;;;-8.20;74.16;100108.37;104877;1291;72403;-57
2023/12/02 00:58:08;;;;;;;93.60;37.50;;;;;;;-8.26;74.16;100110.40;104881;1292;67313;-55
2023/12/02 01:00:54;;;;;;;92.90;36.90;;;;;;;-8.30;74.21;100111.20;104848;1291;71205;-56
2023/12/02 01:03:41;;;;;;;91.90;36.90;;;;;;;-8.34;74.00;100110.21;104869;1289;60423;-54
2023/12/02 01:06:27;;;;;;;102.80;37.30;;;;;;;-8.36;74.08;100096.75;106127;1290;59101;-57
2023/12/02 01:09:13;;;;;;;102.30;35.70;;;;;;;-8.37;73.86;100090.21;106115;1289;72673;-57
2023/12/02 01:11:59;;;;;;;87.70;35.80;;;;;;;-8.39;73.95;100087.93;106128;1290;67388;-58
2023/12/02 01:14:44;;;;;;;90.00;34.20;;;;;;;-8.40;74.06;100084.70;106130;1289;72420;-58
2023/12/02 01:17:30;;;;;;;85.90;31.40;;;;;;;-8.40;73.77;100091.87;106108;1289;59406;-58
2023/12/02 01:20:16;;;;;;;86.70;36.10;;;;;;;-8.43;74.02;100104.42;106118;1289;59684;-56
2023/12/02 01:23:02;;;;;;;82.20;33.40;;;;;;;-8.47;73.77;100108.04;106114;1290;73592;-58
2023/12/02 01:25:48;;;;;;;93.30;33.00;;;;;;;-8.50;73.55;100111.59;106082;1290;67385;-58
2023/12/02 01:28:34;;;;;;;93.90;32.60;;;;;;;-8.48;73.99;100105.17;106122;1289;72580;-58
2023/12/02 01:31:20;;;;;;;95.50;35.20;;;;;;;-8.45;74.14;100096.46;106135;1289;58166;-58
2023/12/02 01:34:06;;;;;;;87.40;33.00;;;;;;;-8.41;74.19;100094.14;106109;1291;58589;-58
2023/12/02 01:36:52;;;;;;;83.90;33.00;;;;;;;-8.38;74.12;100091.99;106101;1290;73020;-57
2023/12/02 01:39:38;;;;;;;90.00;33.70;;;;;;;-8.35;74.31;100087.95;106123;1290;68788;-58
2023/12/02 01:42:24;;;;;;;86.20;32.80;;;;;;;-8.32;74.28;100087.56;106111;1289;71088;-57
2023/12/02 01:45:10;;;;;;;88.10;31.80;;;;;;;-8.31;74.18;100095.94;106120;1289;59241;-58
2023/12/02 01:47:58;;;;;;;91.60;33.50;;;;;;;-8.35;74.01;100107.48;106121;1289;58974;-58
2023/12/02 01:50:45;;;;;;;84.10;32.10;;;;;;;-8.37;74.01;100103.55;106075;1290;72368;-58
2023/12/02 01:53:31;;;;;;;93.90;36.30;;;;;;;-8.39;73.96;100103.45;106091;1291;66493;-58
2023/12/02 01:56:18;;;;;;;103.00;36.30;;;;;;;-8.42;74.12;100111.84;106061;1291;72435;-58
2023/12/02 01:59:04;;;;;;;93.10;34.00;;;;;;;-8.45;74.26;100121.84;106069;1289;59335;-58
2023/12/02 02:01:50;;;;;;;74.70;31.20;;;;;;;-8.50;73.98;100118.08;106146;1289;58776;-58
2023/12/02 02:04:36;;;;;;;107.20;38.10;;;;;;;-8.57;74.13;100122.58;106134;1290;71895;-59
2023/12/02 02:07:22;;;;;;;94.20;31.60;;;;;;;-8.57;74.26;100117.88;106108;1290;68584;-58
2023/12/02 02:10:08;;;;;;;86.70;32.80;;;;;;;-8.60;74.02;100109.05;106101;1289;72633;-58
2023/12/02 02:12:54;;;;;;;85.30;31.80;;;;;;;-8.58;74.18;100114.65;106028;1291;59607;-58
2023/12/02 02:15:40;;;;;;;93.50;34.80;;;;;;;-8.55;74.25;100118.34;106143;1291;58857;-57
2023/12/02 02:18:28;;;;;;;96.00;35.00;;;;;;;-8.52;74.20;100114.62;106116;1289;73650;-58
2023/12/02 02:21:16;;;;;;;92.40;33.20;;;;;;;-8.45;74.33;100111.84;106138;1290;67020;-58
2023/12/02 02:24:02;;;;;;;107.00;35.80;;;;;;;-8.39;74.63;100115.48;106016;1291;71385;-58
2023/12/02 02:26:48;;;;;;;111.00;38.30;;;;;;;-8.33;74.69;100111.93;106149;1290;58177;-58
2023/12/02 02:29:34;;;;;;;127.50;41.40;;;;;;;-8.26;74.74;100107.37;106114;1289;58943;-58
2023/12/02 02:32:20;;;;;;;116.10;40.10;;;;;;;-8.21;74.74;100103.63;106119;1290;74468;-58
2023/12/02 02:35:07;;;;;;;103.10;35.40;;;;;;;-8.16;74.57;100111.08;106122;1289;67629;-58
2023/12/02 02:37:53;;;;;;;99.90;33.90;;;;;;;-8.12;74.58;100103.42;106123;1290;71301;-58
2023/12/02 02:40:39;;;;;;;105.70;36.70;;;;;;;-8.06;74.66;100113.42;106086;1289;58736;-57
2023/12/02 02:43:25;;;;;;;93.90;33.00;;;;;;;-7.98;74.64;100114.30;105811;1290;60511;-58
2023/12/02 02:46:14;;;;;;;100.70;37.70;;;;;;;-7.93;74.87;100121.23;104799;1290;71416;-56
2023/12/02 02:49:00;;;;;;;109.90;39.30;;;;;;;-7.87;74.84;100102.79;106139;1290;68250;-57
2023/12/02 02:51:45;;;;;;;110.60;37.70;;;;;;;-7.85;74.81;100106.11;106117;1290;73594;-58
2023/12/02 02:54:31;;;;;;;110.30;38.60;;;;;;;-7.81;75.57;100109.97;106065;1290;58120;-58
2023/12/02 02:57:21;;;;;;;109.70;38.80;;;;;;;-7.78;75.22;100106.43;106057;1291;58848;-58
2023/12/02 03:00:11;;;;;;;110.60;39.20;;;;;;;-7.74;75.12;100100.24;106150;1290;72389;-57
2023/12/02 03:02:57;;;;;;;118.60;36.70;;;;;;;-7.70;75.35;100096.08;106052;1291;67296;-58
2023/12/02 03:05:43;;;;;;;107.30;38.70;;;;;;;-7.70;75.51;100097.30;106062;1291;72570;-58
2023/12/02 03:08:29;;;;;;;110.00;41.50;;;;;;;-7.64;75.40;100104.23;106116;1290;58133;-58
2023/12/02 03:11:16;;;;;;;107.50;38.00;;;;;;;-7.61;75.32;100107.56;106132;1289;58139;-58
2023/12/02 03:14:02;;;;;;;118.00;42.90;;;;;;;-7.58;75.76;100113.42;106118;1290;71785;-58
2023/12/02 03:16:48;;;;;;;109.50;38.10;;;;;;;-7.55;75.65;100116.75;106151;1290;67359;-58
2023/12/02 03:19:34;;;;;;;119.70;40.50;;;;;;;-7.51;75.69;100115.56;105913;1291;72469;-57
2023/12/02 03:22:20;;;;;;;109.20;37.80;;;;;;;-7.52;75.58;100111.04;104831;1291;60473;-56
2023/12/02 03:25:07;;;;;;;104.00;39.20;;;;;;;-7.48;76.30;100103.49;104842;1291;63728;-56
2023/12/02 03:27:53;;;;;;;92.10;35.20;;;;;;;-7.45;76.39;100103.48;106078;1289;73553;-57
2023/12/02 03:30:39;;;;;;;118.00;41.50;;;;;;;-7.44;76.67;100096.16;106168;1289;67574;-58
2023/12/02 03:33:25;;;;;;;102.50;38.70;;;;;;;-7.43;75.67;100084.52;106051;1289;71191;-58
2023/12/02 03:36:11;;;;;;;104.90;37.90;;;;;;;-7.38;75.75;100083.25;106114;1290;58553;-58
2023/12/02 03:38:57;;;;;;;99.00;39.90;;;;;;;-7.29;75.66;100085.62;106142;1290;60136;-58
2023/12/02 03:41:43;;;;;;;83.50;32.80;;;;;;;-7.24;75.74;100083.70;106104;1289;74139;-57
2023/12/02 03:44:29;;;;;;;83.90;33.30;;;;;;;-7.21;76.18;100089.35;106144;1290;67282;-58
2023/12/02 03:47:15;;;;;;;96.40;34.50;;;;;;;-7.22;76.25;100085.27;106110;1289;72373;-57
2023/12/02 03:50:01;;;;;;;95.60;37.40;;;;;;;-7.20;75.77;100085.54;106060;1291;58450;-58
2023/12/02 03:52:47;;;;;;;97.10;37.00;;;;;;;-7.17;75.72;100087.00;106064;1291;58916;-58
2023/12/02 03:55:33;;;;;;;99.00;38.00;;;;;;;-7.18;76.32;100090.15;106109;1290;72911;-57
2023/12/02 03:58:20;;;;;;;;;;;;;;;-7.20;76.27;100081.54;106105;1290;66220;-58
2023/12/02 04:01:06;;;;;;;100.50;37.50;;;;;;;-7.17;75.88;100078.30;106091;1289;72471;-58
2023/12/02 04:03:52;;;;;;;103.60;39.40;;;;;;;-7.13;76.24;100077.00;106132;1289;58161;-56
2023/12/02 04:06:38;;;;;;;94.50;37.00;;;;;;;-7.06;76.12;100072.98;106079;1291;58252;-57
2023/12/02 04:09:24;;;;;;;101.50;37.90;;;;;;;-6.97;76.30;100074.36;106049;1291;72456;-57
2023/12/02 04:12:10;;;;;;;96.70;36.00;;;;;;;-6.88;76.17;100082.17;106103;1289;67440;-58
2023/12/02 04:14:57;;;;;;;;;;;;;;;-6.78;76.22;100091.30;106112;1290;71202;-57
2023/12/02 04:17:43;;;;;;;90.20;35.50;;;;;;;-6.69;76.35;100087.66;106109;1290;58594;-57
2023/12/02 04:20:29;;;;;;;99.00;35.30;;;;;;;-6.61;76.38;100081.31;106125;1289;58994;-57
2023/12/02 04:23:15;;;;;;;94.60;35.70;;;;;;;-6.55;76.21;100076.89;106113;1289;71781;-58
2023/12/02 04:26:01;;;;;;;89.80;34.00;;;;;;;-6.50;76.21;100071.89;106121;1290;68301;-58
2023/12/02 04:28:46;;;;;;;;;;;;;;;-6.47;76.17;100075.23;106088;1290;73269;-58
2023/12/02 04:31:33;;;;;;;82.70;32.20;;;;;;;-6.45;76.15;100074.47;106092;1289;59504;-58
2023/12/02 04:34:19;;;;;;;100.80;35.20;;;;;;;-6.44;76.12;100077.21;106114;1289;59024;-58
2023/12/02 04:37:05;;;;;;;;;;;;;;;-6.43;76.21;100076.22;106193;1289;73748;-58
2023/12/02 04:39:54;;;;;;;81.20;32.40;;;;;;;-6.44;76.16;100073.50;106087;1290;68227;-58
2023/12/02 04:42:40;;;;;;;85.50;31.90;;;;;;;-6.46;76.18;100073.77;106114;1289;73147;-58
2023/12/02 04:45:26;;;;;;;88.80;33.80;;;;;;;-6.47;76.62;100078.09;106123;1290;58237;-58
2023/12/02 04:48:12;;;;;;;;;;;;;;;-6.53;77.86;100079.63;106065;1291;58031;-57
2023/12/02 04:50:58;;;;;;;78.50;30.20;;;;;;;-6.57;76.91;100074.94;106123;1290;73749;-57
2023/12/02 04:53:44;;;;;;;;;;;;;;;-6.57;76.94;100079.31;106164;1290;68409;-58
2023/12/02 04:56:30;;;;;;;76.10;30.20;;;;;;;-6.56;76.83;100078.52;106103;1290;71992;-57
2023/12/02 04:59:16;;;;;;;84.80;34.90;;;;;;;-6.55;76.66;100060.79;106093;1290;58465;-58
2023/12/02 05:02:03;;;;;;;79.10;30.50;;;;;;;-6.53;76.62;100057.83;106089;1290;58780;-57
2023/12/02 05:04:49;;;;;;;83.10;34.00;;;;;;;-6.53;76.53;100052.48;105515;1291;73831;-57
2023/12/02 05:07:36;;;;;;;82.80;31.80;;;;;;;-6.53;76.49;100048.13;104832;1289;68006;-57
2023/12/02 05:10:22;;;;;;;89.70;34.20;;;;;;;-6.54;76.54;100055.65;104854;1291;71257;-54
2023/12/02 05:13:09;;;;;;;84.80;34.30;;;;;;;-6.55;76.51;100051.55;104856;1291;63656;-57
2023/12/02 05:15:55;;;;;;;84.90;31.80;;;;;;;-6.56;76.44;100043.98;104850;1290;60412;-57
2023/12/02 05:18:42;;;;;;;84.60;32.70;;;;;;;-6.56;76.26;100045.63;104831;1293;72812;-57
2023/12/02 05:21:28;;;;;;;91.00;33.10;;;;;;;-6.60;76.27;100039.45;106152;1289;67173;-57
2023/12/02 05:24:14;;;;;;;86.60;32.30;;;;;;;-6.63;76.45;100040.81;106110;1290;72286;-58
2023/12/02 05:27:00;;;;;;;;;;;;;;;-6.63;76.40;100043.66;106108;1290;58781;-58
2023/12/02 05:29:46;;;;;;;73.10;30.00;;;;;;;-6.62;76.41;100043.73;106111;1290;58857;-58
2023/12/02 05:32:32;;;;;;;84.20;33.10;;;;;;;-6.59;76.45;100042.99;106115;1291;72511;-58
2023/12/02 05:35:19;;;;;;;81.50;33.80;;;;;;;-6.53;76.55;100039.59;106102;1290;67864;-58
2023/12/02 05:38:05;;;;;;;84.30;31.90;;;;;;;-6.45;76.67;100029.84;106123;1290;72524;-57
2023/12/02 05:40:50;;;;;;;;;;;;;;;-6.41;76.76;100022.67;106147;1290;59091;-58
2023/12/02 05:43:36;;;;;;;81.10;31.00;;;;;;;-6.39;76.62;100018.06;106090;1291;59081;-58
2023/12/02 05:46:22;;;;;;;;;;;;;;;-6.35;76.92;100026.79;106108;1290;73071;-58
2023/12/02 05:49:08;;;;;;;79.60;30.70;;;;;;;-6.32;77.41;100034.60;106124;1290;68538;-57
2023/12/02 05:51:54;;;;;;;86.20;31.50;;;;;;;-6.32;77.27;100038.44;106086;1290;71481;-57
2023/12/02 05:54:40;;;;;;;;;;;;;;;-6.31;77.14;100043.85;106147;1289;58609;-58
2023/12/02 05:57:26;;;;;;;86.80;32.90;;;;;;;-6.29;77.32;100049.30;106156;1290;58844;-58
2023/12/02 06:00:12;;;;;;;;;;;;;;;-6.27;77.14;100055.09;106094;1291;72807;-58
2023/12/02 06:02:58;;;;;;;84.70;31.30;;;;;;;-6.26;77.31;100052.31;106118;1290;67143;-57
2023/12/02 06:05:44;;;;;;;;;;;;;;;-6.24;77.05;100053.40;106124;1290;72269;-58
2023/12/02 06:08:30;;;;;;;77.00;29.90;;;;;;;-6.22;77.56;100055.11;106080;1291;58892;-58
2023/12/02 06:11:16;;;;;;;;;;;;;;;-6.22;77.28;100056.11;106125;1290;58821;-57
2023/12/02 06:14:01;;;;;;;79.10;30.30;;;;;;;-6.23;79.25;100063.13;106126;1290;73275;-58
2023/12/02 06:16:47;;;;;;;;;;;;;;;-6.25;79.67;100073.15;106052;1290;68067;-58
2023/12/02 06:19:33;;;;;;;80.50;30.70;;;;;;;-6.24;78.49;100073.34;106075;1290;73023;-58
2023/12/02 06:22:19;;;;;;;;;;;;;;;-6.23;78.81;100078.73;106113;1291;58303;-58
2023/12/02 06:25:06;;;;;;;102.70;39.10;;;;;;;-6.24;77.86;100080.05;106087;1290;58874;-58
2023/12/02 06:27:52;;;;;;;93.30;34.40;;;;;;;-6.21;77.78;100083.53;106025;1290;72637;-58
2023/12/02 06:30:38;;;;;;;;;;;;;;;-6.18;78.18;100084.83;106116;1290;67227;-58
2023/12/02 06:33:24;;;;;;;83.40;32.80;;;;;;;-6.17;77.89;100084.17;106082;1289;72645;-57
2023/12/02 06:36:10;;;;;;;;;;;;;;;-6.15;78.74;100086.95;106094;1290;58684;-58
2023/12/02 06:38:56;;;;;;;80.50;32.10;;;;;;;-6.17;79.09;100087.52;106054;1290;60854;-58
2023/12/02 06:41:42;;;;;;;75.90;32.20;;;;;;;-6.19;78.62;100090.64;106097;1289;71552;-58
2023/12/02 06:44:28;;;;;;;76.70;31.00;;;;;;;-6.16;78.40;100096.96;106089;1289;66187;-58
2023/12/02 06:47:14;;;;;;;91.10;33.70;;;;;;;-6.16;78.17;100104.35;106106;1290;71425;-57
2023/12/02 06:50:00;;;;;;;;;;;;;;;-6.16;78.85;100116.45;106087;1290;58533;-58
2023/12/02 06:52:46;;;;;;;82.00;32.10;;;;;;;-6.13;78.65;100124.45;106106;1290;58833;-56
2023/12/02 06:55:32;;;;;;;;;;;;;;;-6.10;78.24;100120.39;106124;1290;75209;-58
2023/12/02 06:58:18;;;;;;;87.80;32.60;;;;;;;-6.09;78.30;100124.80;106137;1290;67660;-59
2023/12/02 07:01:04;;;;;;;;;;;;;;;-6.05;77.90;100127.79;106060;1291;70940;-57
2023/12/02 07:03:50;;;;;;;95.60;34.80;;;;;;;-6.00;78.01;100129.52;106130;1289;58414;-57
2023/12/02 07:06:39;;;;;;;102.80;38.00;;;;;;;-5.98;78.28;100130.13;106013;1290;60809;-56
2023/12/02 07:09:25;;;;;;;92.90;32.60;;;;;;;-5.96;78.24;100135.73;106158;1290;72371;-57
2023/12/02 07:12:11;;;;;;;;;;;;;;;-5.91;78.79;100134.42;106110;1290;67444;-58
2023/12/02 07:14:57;;;;;;;95.00;33.10;;;;;;;-5.89;78.93;100131.84;106012;1289;71899;-58
2023/12/02 07:17:43;;;;;;;;;;;;;;;-5.85;78.82;100136.98;106069;1289;60020;-58
2023/12/02 07:20:28;;;;;;;75.30;30.30;;;;;;;-5.83;78.63;100132.40;106084;1291;60028;-58
2023/12/02 07:23:14;;;;;;;;;;;;;;;-5.80;78.29;100128.02;106102;1290;73299;-58
2023/12/02 07:26:01;;;;;;;79.60;30.20;;;;;;;-5.73;77.99;100124.73;106147;1291;67378;-58
2023/12/02 07:28:47;;;;;;;90.10;34.00;;;;;;;-5.64;78.19;100122.42;106091;1290;71237;-57
2023/12/02 07:31:33;;;;;;;83.10;34.50;;;;;;;-5.59;79.10;100121.80;106054;1289;58981;-57
2023/12/02 07:34:18;;;;;;;;;;;;;;;-5.57;79.27;100125.89;106033;1290;59125;-59
2023/12/02 07:37:04;;;;;;;72.30;29.10;;;;;;;-5.60;79.99;100133.31;106115;1289;72382;-58
2023/12/02 07:39:50;;;;;;;;;;;;;;;-5.63;79.64;100132.02;106054;1291;67484;-58
2023/12/02 07:42:36;;;;;;;64.90;25.50;;;;;;;-5.65;79.26;100129.58;105983;1289;71402;-58
2023/12/02 07:45:22;;;;;;;;;;;;;;;-5.61;78.86;100127.21;105999;1290;59365;-58
2023/12/02 07:48:08;;;;;;;60.10;25.90;;;;;;;-5.56;78.57;100125.43;106068;1290;60033;-58
2023/12/02 07:50:54;;;;;;;;;;;;;;;-5.46;78.78;100127.35;105040;1291;72564;-58
2023/12/02 07:53:40;;;;;;;59.60;25.30;;;;;;;-5.42;79.53;100130.19;104779;1290;67295;-58
2023/12/02 07:56:26;;;;;;;66.30;27.40;;;;;;;-5.38;79.18;100130.02;104663;1293;72059;-57
2023/12/02 07:59:13;;;;;;;62.00;27.90;;;;;;;-5.30;78.93;100137.05;104844;1292;61520;-57
2023/12/02 08:01:59;;;;;;;63.90;28.20;;;;;;;-5.26;78.84;100136.84;104737;1290;60484;-58
2023/12/02 08:04:47;;;;;;;51.30;24.50;;;;;;;-5.19;79.12;100136.64;104806;1290;75086;-57
2023/12/02 08:07:33;;;;;;;57.70;27.30;;;;;;;-5.14;78.93;100139.85;104802;1290;68156;-58
2023/12/02 08:10:19;;;;;;;62.80;27.90;;;;;;;-5.10;78.82;100145.69;104633;1290;71242;-58
2023/12/02 08:13:05;;;;;;;62.90;27.80;;;;;;;-5.13;79.38;100152.14;104634;1291;60312;-57
2023/12/02 08:15:52;;;;;;;63.20;28.10;;;;;;;-5.16;78.90;100148.31;104743;1290;60382;-56
2023/12/02 08:18:38;;;;;;;58.90;27.70;;;;;;;-5.14;79.37;100154.11;104745;1290;74506;-57
2023/12/02 08:21:24;;;;;;;59.80;27.00;;;;;;;-5.10;79.04;100150.77;104793;1291;67300;-55
2023/12/02 08:24:10;;;;;;;62.40;25.80;;;;;;;-5.06;80.15;100150.91;104804;1291;71258;-55
2023/12/02 08:26:56;;;;;;;62.60;26.70;;;;;;;-5.03;79.27;100149.50;104781;1291;62797;-54
2023/12/02 08:29:44;;;;;;;66.70;26.40;;;;;;;-5.04;79.60;100155.86;104874;1290;61741;-55
2023/12/02 08:32:30;;;;;;;64.10;27.40;;;;;;;-5.04;79.77;100159.02;105958;1290;72432;-56
2023/12/02 08:35:16;;;;;;;67.30;27.80;;;;;;;-5.06;79.64;100158.81;106098;1290;68042;-55
2023/12/02 08:38:01;;;;;;;;;;;;;;;-5.06;79.37;100158.98;106132;1291;71207;-56
2023/12/02 08:40:49;;;;;;;68.60;26.90;;;;;;;-5.03;79.08;100158.91;104949;1291;60382;-54
2023/12/02 08:43:35;;;;;;;67.00;27.10;;;;;;;-4.95;79.99;100158.04;104805;1291;59274;-56
2023/12/02 08:46:22;;;;;;;68.20;26.70;;;;;;;-4.93;80.39;100158.62;104858;1290;72418;-55
2023/12/02 08:49:08;;;;;;;64.80;28.10;;;;;;;-4.95;79.81;100156.70;104843;1291;71819;-52
2023/12/02 08:51:54;;;;;;;65.10;26.70;;;;;;;-4.89;79.45;100165.36;104839;1290;71247;-56
2023/12/02 08:54:41;;;;;;;58.20;25.90;;;;;;;-4.78;79.33;100170.31;104892;1291;61034;-57
2023/12/02 08:57:27;;;;;;;65.20;26.80;;;;;;;-4.72;79.30;100171.55;104801;1289;84002;-57
2023/12/02 09:00:14;;;;;;;67.10;28.40;;;;;;;-4.64;79.22;100182.05;105038;1288;71881;-58
2023/12/02 09:03:00;;;;;;;67.80;26.80;;;;;;;-4.57;79.33;100190.09;105382;1288;68975;-56
2023/12/02 09:05:46;;;;;;;62.40;26.40;;;;;;;-4.52;79.14;100186.39;105010;1289;71227;-55
2023/12/02 09:08:32;;;;;;;61.70;26.40;;;;;;;-4.52;79.27;100196.17;105009;1289;60315;-57
2023/12/02 09:11:19;;;;;;;65.00;27.80;;;;;;;-4.54;79.11;100198.60;105004;1289;61586;-55
2023/12/02 09:14:05;;;;;;;62.90;27.30;;;;;;;-4.56;79.05;100195.67;105020;1291;76545;-53
2023/12/02 09:16:51;;;;;;;63.50;27.20;;;;;;;-4.53;79.29;100193.91;105039;1289;67412;-54
2023/12/02 09:19:54;;;;;;;62.70;27.60;;;;;;;-4.45;79.27;100192.05;105047;1289;71242;-56
2023/12/02 09:22:47;;;;;;;68.80;28.20;;;;;;;-4.34;79.28;100184.54;104960;1289;59856;-56
2023/12/02 09:25:36;;;;;;;62.20;25.20;;;;;;;-4.24;79.27;100178.16;105006;1292;63002;-57
2023/12/02 09:28:27;;;;;;;68.30;28.80;;;;;;;-4.21;79.20;100174.77;104996;1292;72826;-56
2023/12/02 09:31:13;;;;;;;63.90;26.80;;;;;;;-4.17;79.24;100172.19;104980;1289;68527;-56
2023/12/02 09:34:05;;;;;;;63.10;28.00;;;;;;;-4.13;79.33;100170.63;104868;1289;71182;-56
2023/12/02 09:36:51;;;;;;;73.90;27.30;;;;;;;-4.12;79.47;100174.05;104993;1289;60578;-56
2023/12/02 09:40:00;;;;;;;71.30;29.00;;;;;;;-4.08;79.30;100180.75;105050;1289;60476;-57
2023/12/02 09:43:10;;;;;;;67.70;28.50;;;;;;;-4.11;79.10;100180.97;104942;1292;74204;-57
2023/12/02 09:46:05;;;;;;;77.30;29.60;;;;;;;-4.18;79.07;100178.56;104963;1293;67402;-56
2023/12/02 09:49:17;;;;;;;69.00;28.00;;;;;;;-4.10;79.29;100178.48;104928;1289;71082;-53
2023/12/02 09:52:29;;;;;;;72.90;29.00;;;;;;;-4.00;79.47;100172.59;105644;1292;62315;-55
2023/12/02 09:55:19;;;;;;;72.60;28.10;;;;;;;-3.89;79.52;100168.45;106258;1289;58842;-55
2023/12/02 09:58:26;;;;;;;82.00;30.60;;;;;;;-3.81;79.62;100164.70;106205;1289;73065;-57
2023/12/02 10:01:32;;;;;;;87.40;31.00;;;;;;;-3.74;79.47;100157.87;106208;1288;68534;-57
2023/12/02 10:04:36;;;;;;;98.80;34.20;;;;;;;-3.67;79.55;100154.05;106254;1289;71426;-56
2023/12/02 10:07:55;;;;;;;78.40;29.70;;;;;;;-3.59;79.62;100153.79;106231;1289;58811;-57
2023/12/02 10:11:12;;;;;;;86.90;32.00;;;;;;;-3.50;79.80;100157.11;106261;1288;59987;-56
2023/12/02 10:14:00;;;;;;;93.50;32.30;;;;;;;-3.42;79.96;100156.21;106068;1291;73722;-57
2023/12/02 10:16:47;;;;;;;102.50;35.10;;;;;;;-3.34;79.76;100152.09;106243;1288;67348;-57
2023/12/02 10:19:48;;;;;;;92.50;33.50;;;;;;;-3.20;79.81;100147.82;106262;1288;72500;-57
2023/12/02 10:22:43;;;;;;;92.20;34.70;;;;;;;-3.14;79.62;100148.00;106203;1288;58490;-57
2023/12/02 10:25:40;;;;;;;90.30;33.80;;;;;;;-3.08;79.84;100154.73;106240;1293;59994;-57
2023/12/02 10:28:42;;;;;;;95.20;36.00;;;;;;;-3.07;79.90;100154.42;106312;1288;74175;-58
2023/12/02 10:31:30;;;;;;;92.40;35.10;;;;;;;-3.14;80.06;100151.89;106108;1288;67848;-58
2023/12/02 10:34:29;;;;;;;94.10;34.20;;;;;;;-3.11;79.90;100155.66;106239;1289;71320;-57
2023/12/02 10:37:15;;;;;;;93.10;35.80;;;;;;;-2.99;79.96;100152.49;106208;1289;59288;-57
2023/12/02 10:40:07;;;;;;;89.90;33.60;;;;;;;-2.90;80.02;100151.43;106191;1289;59073;-58
2023/12/02 10:43:19;;;;;;;84.80;34.60;;;;;;;-2.86;80.43;100150.34;106230;1288;72275;-58
2023/12/02 10:46:07;;;;;;;90.30;35.30;;;;;;;-2.86;80.17;100151.02;106299;1291;69095;-57
2023/12/02 10:48:54;;;;;;;90.30;35.40;;;;;;;-2.78;80.19;100150.77;106223;1293;72614;-57
2023/12/02 10:51:42;;;;;;;91.20;34.30;;;;;;;-2.70;80.25;100145.10;106165;1289;58435;-57
2023/12/02 10:54:39;;;;;;;98.30;36.80;;;;;;;-2.71;80.11;100148.46;106244;1289;59712;-57
2023/12/02 10:57:26;;;;;;;93.10;36.40;;;;;;;-2.73;80.15;100150.92;106241;1289;71495;-57
2023/12/02 11:00:16;;;;;;;92.50;36.80;;;;;;;-2.65;80.20;100155.73;106198;1289;67507;-57
2023/12/02 11:03:11;;;;;;;97.10;37.20;;;;;;;-2.63;80.10;100151.71;106192;1288;70534;-58
2023/12/02 11:06:07;;;;;;;109.40;36.70;;;;;;;-2.57;80.25;100146.80;106058;1288;251489;-58
2023/12/02 11:08:54;;;;;;;85.30;34.70;;;;;;;-2.44;80.29;100149.71;106243;1289;58821;-58
2023/12/02 11:11:46;;;;;;;87.10;37.20;;;;;;;-2.30;80.30;100140.98;106260;1288;72590;-57
2023/12/02 11:14:41;;;;;;;88.90;33.30;;;;;;;-2.24;80.45;100132.89;106207;1289;66361;-57
2023/12/02 11:17:41;;;;;;;107.30;38.40;;;;;;;-2.21;80.52;100135.02;102142;1288;5004307;-57
2023/12/02 11:21:01;;;;;;;114.80;40.70;;;;;;;-2.18;80.73;100139.31;106096;1291;59466;-58
2023/12/02 11:23:50;;;;;;;111.30;40.10;;;;;;;-2.18;80.53;100141.68;106120;1292;58952;-58
2023/12/02 11:26:50;;;;;;;100.30;37.70;;;;;;;-2.16;80.40;100147.97;106149;1290;71997;-58
2023/12/02 11:29:52;;;;;;;111.80;41.60;;;;;;;-2.10;80.51;100147.80;106145;1291;68820;-58
2023/12/02 11:33:16;;;;;;;107.60;39.70;;;;;;;-1.98;80.69;100144.72;106143;1290;71164;-58
2023/12/02 11:36:31;;;;;;;119.80;39.50;;;;;;;-1.94;80.50;100150.90;106099;1292;58268;-57
2023/12/02 11:40:00;;;;;;;123.60;40.40;;;;;;;-1.91;80.70;100145.76;104917;1292;60655;-56
2023/12/02 11:43:09;;;;;;;130.50;43.60;;;;;;;-1.96;80.50;100144.44;104778;1294;75156;-57
2023/12/02 11:46:13;;;;;;;125.40;43.10;;;;;;;-1.94;80.77;100143.33;104833;1292;67547;-57
2023/12/02 11:49:22;;;;;;;134.80;45.30;;;;;;;-1.91;80.80;100143.23;104831;1291;72165;-56
2023/12/02 11:52:13;;;;;;;132.70;44.50;;;;;;;-1.85;80.71;100143.20;104854;1292;60390;-57
2023/12/02 11:55:30;;;;;;;133.80;46.10;;;;;;;-1.83;80.85;100143.79;104882;1291;60342;-56
2023/12/02 11:58:42;;;;;;;133.90;47.00;;;;;;;-1.73;81.01;100136.27;104884;1291;75080;-56
2023/12/02 12:01:43;;;;;;;132.50;44.40;;;;;;;-1.66;81.05;100131.39;104902;1292;68008;-57
2023/12/02 12:04:51;;;;;;;142.00;49.20;;;;;;;-1.78;81.35;100129.88;104901;1292;72314;-56
2023/12/02 12:07:56;;;;;;;125.20;44.50;;;;;;;-1.86;81.00;100139.47;104912;1291;60230;-56
2023/12/02 12:10:43;;;;;;;155.10;47.60;;;;;;;-1.93;81.82;100154.83;104870;1292;63015;-57
2023/12/02 12:13:32;;;;;;;146.30;50.30;;;;;;;-1.94;81.45;100161.70;104887;1290;72346;-56
2023/12/02 12:16:19;;;;;;;149.50;48.10;;;;;;;-1.84;81.48;100168.41;104906;1294;67478;-52
2023/12/02 12:19:05;;;;;;;123.70;43.20;;;;;;;-1.80;81.40;100165.14;104874;1294;71817;-55
2023/12/02 12:21:51;;;;;;;117.20;41.20;;;;;;;-1.77;81.40;100167.07;104895;1292;60340;-53
2023/12/02 12:24:37;;;;;;;;;;;;;;;-1.71;81.34;100161.66;104908;1292;60737;-55
2023/12/02 12:27:23;;;;;;;108.20;33.40;;;;;;;-1.67;81.45;100159.23;104850;1292;72485;-54
2023/12/02 12:30:10;;;;;;;;;;;;;;;-1.68;81.48;100152.45;104913;1294;66411;-55
2023/12/02 12:32:56;;;;;;;125.50;48.60;;;;;;;-1.69;81.49;100155.96;104839;1293;76090;-56
2023/12/02 12:35:44;;;;;;;95.50;38.20;;;;;;;-1.70;81.60;100163.04;104890;1294;60936;-56
2023/12/02 12:38:30;;;;;;;88.70;37.10;;;;;;;-1.68;81.72;100159.37;104883;1292;61625;-55
2023/12/02 12:41:19;;;;;;;;;;;;;;;-1.71;81.82;100149.51;104941;1291;72400;-54
2023/12/02 12:44:06;;;;;;;99.40;42.90;;;;;;;-1.75;81.74;100141.80;104933;1291;69625;-53
2023/12/02 12:46:52;;;;;;;89.60;37.40;;;;;;;-1.76;82.52;100144.14;104845;1294;71874;-56